sensor_id;sensor_type;location;lat;lon;timestamp;P1;durP1;ratioP1;P2;durP2;ratioP2
75716;SDS011;64333;50.138;14.332;2022-12-18T00:01:03;56.97;;;22.88;;
75716;SDS011;64333;50.138;14.332;2022-12-18T00:03:34;54.03;;;22.27;;
75716;SDS011;64333;50.138;14.332;2022-12-18T00:06:00;56.95;;;22.73;;
75716;SDS011;64333;50.138;14.332;2022-12-18T00:08:27;56.83;;;23.48;;
75716;SDS011;64333;50.138;14.332;2022-12-18T00:10:52;57.60;;;22.65;;
75716;SDS011;64333;50.138;14.332;2022-12-18T00:13:17;62.67;;;24.95;;
75716;SDS011;64333;50.138;14.332;2022-12-18T00:15:43;71.45;;;27.23;;
75716;SDS011;64333;50.138;14.332;2022-12-18T00:18:08;70.70;;;27.92;;
75716;SDS011;64333;50.138;14.332;2022-12-18T00:20:38;59.45;;;24.05;;
75716;SDS011;64333;50.138;14.332;2022-12-18T00:23:05;53.60;;;23.25;;
75716;SDS011;64333;50.138;14.332;2022-12-18T00:25:35;58.85;;;25.73;;
75716;SDS011;64333;50.138;14.332;2022-12-18T00:28:01;56.00;;;22.83;;
75716;SDS011;64333;50.138;14.332;2022-12-18T00:30:28;64.43;;;23.65;;
75716;SDS011;64333;50.138;14.332;2022-12-18T00:32:53;65.95;;;27.52;;
75716;SDS011;64333;50.138;14.332;2022-12-18T00:35:18;44.55;;;20.58;;
75716;SDS011;64333;50.138;14.332;2022-12-18T00:37:44;56.40;;;25.40;;
75716;SDS011;64333;50.138;14.332;2022-12-18T00:40:09;43.30;;;20.40;;
75716;SDS011;64333;50.138;14.332;2022-12-18T00:42:35;56.55;;;24.23;;
75716;SDS011;64333;50.138;14.332;2022-12-18T00:45:19;42.45;;;17.92;;
75716;SDS011;64333;50.138;14.332;2022-12-18T00:47:44;38.53;;;17.45;;
75716;SDS011;64333;50.138;14.332;2022-12-18T00:50:10;43.30;;;18.27;;
75716;SDS011;64333;50.138;14.332;2022-12-18T00:52:35;60.47;;;21.05;;
75716;SDS011;64333;50.138;14.332;2022-12-18T00:55:01;49.70;;;21.23;;
75716;SDS011;64333;50.138;14.332;2022-12-18T00:57:26;38.45;;;19.20;;
75716;SDS011;64333;50.138;14.332;2022-12-18T00:59:51;47.60;;;21.00;;
75716;SDS011;64333;50.138;14.332;2022-12-18T01:02:17;38.40;;;17.95;;
75716;SDS011;64333;50.138;14.332;2022-12-18T01:04:42;45.55;;;20.40;;
75716;SDS011;64333;50.138;14.332;2022-12-18T01:07:07;49.17;;;22.65;;
75716;SDS011;64333;50.138;14.332;2022-12-18T01:09:33;48.17;;;21.98;;
75716;SDS011;64333;50.138;14.332;2022-12-18T01:11:59;53.15;;;23.08;;
75716;SDS011;64333;50.138;14.332;2022-12-18T01:14:24;43.60;;;22.05;;
75716;SDS011;64333;50.138;14.332;2022-12-18T01:16:50;53.30;;;21.85;;
75716;SDS011;64333;50.138;14.332;2022-12-18T01:19:15;51.92;;;23.30;;
75716;SDS011;64333;50.138;14.332;2022-12-18T01:21:40;54.42;;;23.33;;
75716;SDS011;64333;50.138;14.332;2022-12-18T01:24:06;46.40;;;21.88;;
75716;SDS011;64333;50.138;14.332;2022-12-18T01:26:31;46.90;;;21.85;;
75716;SDS011;64333;50.138;14.332;2022-12-18T01:28:57;51.13;;;23.20;;
75716;SDS011;64333;50.138;14.332;2022-12-18T01:31:24;47.92;;;22.30;;
75716;SDS011;64333;50.138;14.332;2022-12-18T01:33:54;49.95;;;22.98;;
75716;SDS011;64333;50.138;14.332;2022-12-18T01:36:21;50.30;;;20.35;;
75716;SDS011;64333;50.138;14.332;2022-12-18T01:38:55;55.20;;;22.85;;
75716;SDS011;64333;50.138;14.332;2022-12-18T01:41:25;61.53;;;26.25;;
75716;SDS011;64333;50.138;14.332;2022-12-18T01:47:14;55.22;;;24.52;;
75716;SDS011;64333;50.138;14.332;2022-12-18T01:49:43;41.42;;;19.98;;
75716;SDS011;64333;50.138;14.332;2022-12-18T01:52:08;54.17;;;21.98;;
75716;SDS011;64333;50.138;14.332;2022-12-18T01:54:34;49.83;;;20.55;;
75716;SDS011;64333;50.138;14.332;2022-12-18T01:56:59;46.65;;;21.00;;
75716;SDS011;64333;50.138;14.332;2022-12-18T01:59:25;47.78;;;23.45;;
75716;SDS011;64333;50.138;14.332;2022-12-18T02:01:52;60.83;;;24.48;;
75716;SDS011;64333;50.138;14.332;2022-12-18T02:04:21;65.45;;;25.20;;
75716;SDS011;64333;50.138;14.332;2022-12-18T02:06:50;57.13;;;24.25;;
75716;SDS011;64333;50.138;14.332;2022-12-18T02:09:31;51.88;;;22.55;;
75716;SDS011;64333;50.138;14.332;2022-12-18T02:12:05;50.42;;;22.08;;
75716;SDS011;64333;50.138;14.332;2022-12-18T02:14:55;52.25;;;21.02;;
75716;SDS011;64333;50.138;14.332;2022-12-18T02:17:30;47.10;;;21.02;;
75716;SDS011;64333;50.138;14.332;2022-12-18T02:20:32;53.50;;;22.40;;
75716;SDS011;64333;50.138;14.332;2022-12-18T02:26:06;44.28;;;21.27;;
75716;SDS011;64333;50.138;14.332;2022-12-18T02:28:46;51.63;;;22.00;;
75716;SDS011;64333;50.138;14.332;2022-12-18T02:31:25;45.35;;;20.50;;
75716;SDS011;64333;50.138;14.332;2022-12-18T02:33:53;47.95;;;21.40;;
75716;SDS011;64333;50.138;14.332;2022-12-18T02:36:21;55.72;;;23.08;;
75716;SDS011;64333;50.138;14.332;2022-12-18T02:38:48;50.78;;;23.02;;
75716;SDS011;64333;50.138;14.332;2022-12-18T02:41:17;53.35;;;22.35;;
75716;SDS011;64333;50.138;14.332;2022-12-18T02:43:46;53.08;;;23.98;;
75716;SDS011;64333;50.138;14.332;2022-12-18T02:46:31;47.83;;;22.20;;
75716;SDS011;64333;50.138;14.332;2022-12-18T03:00:22;47.72;;;22.15;;
75716;SDS011;64333;50.138;14.332;2022-12-18T03:02:55;55.30;;;23.08;;
75716;SDS011;64333;50.138;14.332;2022-12-18T03:05:25;53.05;;;24.10;;
75716;SDS011;64333;50.138;14.332;2022-12-18T03:07:56;63.25;;;25.60;;
75716;SDS011;64333;50.138;14.332;2022-12-18T03:10:27;56.97;;;25.50;;
75716;SDS011;64333;50.138;14.332;2022-12-18T03:13:05;52.22;;;24.92;;
75716;SDS011;64333;50.138;14.332;2022-12-18T03:15:39;46.05;;;23.75;;
75716;SDS011;64333;50.138;14.332;2022-12-18T03:18:10;53.78;;;24.40;;
75716;SDS011;64333;50.138;14.332;2022-12-18T03:20:40;57.20;;;26.63;;
75716;SDS011;64333;50.138;14.332;2022-12-18T03:23:09;60.13;;;26.23;;
75716;SDS011;64333;50.138;14.332;2022-12-18T03:25:39;50.30;;;25.15;;
75716;SDS011;64333;50.138;14.332;2022-12-18T03:28:07;56.75;;;24.25;;
75716;SDS011;64333;50.138;14.332;2022-12-18T03:30:37;59.35;;;25.02;;
75716;SDS011;64333;50.138;14.332;2022-12-18T03:33:07;50.17;;;21.95;;
75716;SDS011;64333;50.138;14.332;2022-12-18T03:35:37;51.03;;;24.60;;
75716;SDS011;64333;50.138;14.332;2022-12-18T03:38:06;58.70;;;24.55;;
75716;SDS011;64333;50.138;14.332;2022-12-18T03:41:06;62.45;;;25.30;;
75716;SDS011;64333;50.138;14.332;2022-12-18T03:43:45;50.97;;;24.83;;
75716;SDS011;64333;50.138;14.332;2022-12-18T03:46:26;54.25;;;23.63;;
75716;SDS011;64333;50.138;14.332;2022-12-18T03:49:02;60.88;;;25.30;;
75716;SDS011;64333;50.138;14.332;2022-12-18T03:54:11;54.05;;;24.20;;
75716;SDS011;64333;50.138;14.332;2022-12-18T03:56:45;57.35;;;25.42;;
75716;SDS011;64333;50.138;14.332;2022-12-18T03:59:15;60.83;;;25.15;;
75716;SDS011;64333;50.138;14.332;2022-12-18T04:01:42;59.33;;;25.60;;
75716;SDS011;64333;50.138;14.332;2022-12-18T04:04:14;60.05;;;27.08;;
75716;SDS011;64333;50.138;14.332;2022-12-18T04:06:41;70.32;;;28.35;;
75716;SDS011;64333;50.138;14.332;2022-12-18T04:09:08;69.60;;;27.55;;
75716;SDS011;64333;50.138;14.332;2022-12-18T04:11:34;61.72;;;27.08;;
75716;SDS011;64333;50.138;14.332;2022-12-18T04:13:59;61.92;;;25.92;;
75716;SDS011;64333;50.138;14.332;2022-12-18T04:16:25;57.85;;;28.02;;
75716;SDS011;64333;50.138;14.332;2022-12-18T04:18:52;62.08;;;26.48;;
75716;SDS011;64333;50.138;14.332;2022-12-18T04:21:18;68.47;;;28.73;;
75716;SDS011;64333;50.138;14.332;2022-12-18T04:23:44;62.83;;;29.45;;
75716;SDS011;64333;50.138;14.332;2022-12-18T04:26:09;62.63;;;28.48;;
75716;SDS011;64333;50.138;14.332;2022-12-18T04:28:35;61.67;;;28.58;;
75716;SDS011;64333;50.138;14.332;2022-12-18T04:31:00;68.40;;;29.52;;
75716;SDS011;64333;50.138;14.332;2022-12-18T04:33:26;61.78;;;28.25;;
75716;SDS011;64333;50.138;14.332;2022-12-18T04:35:51;59.80;;;27.20;;
75716;SDS011;64333;50.138;14.332;2022-12-18T04:38:17;63.45;;;27.25;;
75716;SDS011;64333;50.138;14.332;2022-12-18T04:40:42;70.13;;;28.38;;
75716;SDS011;64333;50.138;14.332;2022-12-18T04:43:08;67.15;;;29.77;;
75716;SDS011;64333;50.138;14.332;2022-12-18T04:45:33;58.63;;;25.17;;
75716;SDS011;64333;50.138;14.332;2022-12-18T04:47:59;56.53;;;25.83;;
75716;SDS011;64333;50.138;14.332;2022-12-18T04:50:26;57.00;;;25.85;;
75716;SDS011;64333;50.138;14.332;2022-12-18T04:52:52;62.67;;;25.90;;
75716;SDS011;64333;50.138;14.332;2022-12-18T04:55:17;64.68;;;24.88;;
75716;SDS011;64333;50.138;14.332;2022-12-18T04:57:43;52.90;;;26.55;;
75716;SDS011;64333;50.138;14.332;2022-12-18T05:00:08;51.88;;;26.55;;
75716;SDS011;64333;50.138;14.332;2022-12-18T05:02:35;58.75;;;27.23;;
75716;SDS011;64333;50.138;14.332;2022-12-18T05:05:00;48.33;;;24.63;;
75716;SDS011;64333;50.138;14.332;2022-12-18T05:07:25;59.47;;;25.92;;
75716;SDS011;64333;50.138;14.332;2022-12-18T05:09:51;56.15;;;27.00;;
75716;SDS011;64333;50.138;14.332;2022-12-18T05:12:16;56.83;;;24.73;;
75716;SDS011;64333;50.138;14.332;2022-12-18T05:14:41;50.38;;;23.33;;
75716;SDS011;64333;50.138;14.332;2022-12-18T05:17:07;50.10;;;23.63;;
75716;SDS011;64333;50.138;14.332;2022-12-18T05:19:32;56.83;;;23.45;;
75716;SDS011;64333;50.138;14.332;2022-12-18T05:21:58;47.55;;;21.95;;
75716;SDS011;64333;50.138;14.332;2022-12-18T05:24:23;47.65;;;22.23;;
75716;SDS011;64333;50.138;14.332;2022-12-18T05:26:48;54.58;;;22.50;;
75716;SDS011;64333;50.138;14.332;2022-12-18T05:29:14;49.50;;;23.25;;
75716;SDS011;64333;50.138;14.332;2022-12-18T05:31:39;43.75;;;21.75;;
75716;SDS011;64333;50.138;14.332;2022-12-18T05:34:05;50.30;;;20.50;;
75716;SDS011;64333;50.138;14.332;2022-12-18T05:36:31;47.85;;;20.90;;
75716;SDS011;64333;50.138;14.332;2022-12-18T05:38:56;51.15;;;23.45;;
75716;SDS011;64333;50.138;14.332;2022-12-18T05:41:21;42.60;;;20.60;;
75716;SDS011;64333;50.138;14.332;2022-12-18T05:43:47;40.65;;;20.77;;
75716;SDS011;64333;50.138;14.332;2022-12-18T05:46:13;37.63;;;18.88;;
75716;SDS011;64333;50.138;14.332;2022-12-18T05:48:41;49.72;;;22.60;;
75716;SDS011;64333;50.138;14.332;2022-12-18T05:51:08;50.50;;;25.63;;
75716;SDS011;64333;50.138;14.332;2022-12-18T05:53:36;55.85;;;24.13;;
75716;SDS011;64333;50.138;14.332;2022-12-18T05:56:05;46.55;;;23.77;;
75716;SDS011;64333;50.138;14.332;2022-12-18T05:58:33;48.33;;;22.70;;
75716;SDS011;64333;50.138;14.332;2022-12-18T06:01:05;50.40;;;25.33;;
75716;SDS011;64333;50.138;14.332;2022-12-18T06:03:33;50.67;;;21.98;;
75716;SDS011;64333;50.138;14.332;2022-12-18T06:05:58;57.55;;;22.60;;
75716;SDS011;64333;50.138;14.332;2022-12-18T06:08:24;59.83;;;24.85;;
75716;SDS011;64333;50.138;14.332;2022-12-18T06:10:50;64.13;;;25.10;;
75716;SDS011;64333;50.138;14.332;2022-12-18T06:13:17;58.85;;;25.02;;
75716;SDS011;64333;50.138;14.332;2022-12-18T06:15:43;63.58;;;26.20;;
75716;SDS011;64333;50.138;14.332;2022-12-18T06:18:09;58.47;;;26.30;;
75716;SDS011;64333;50.138;14.332;2022-12-18T06:20:34;64.85;;;27.70;;
75716;SDS011;64333;50.138;14.332;2022-12-18T06:23:01;64.72;;;26.30;;
75716;SDS011;64333;50.138;14.332;2022-12-18T06:25:27;57.65;;;26.73;;
75716;SDS011;64333;50.138;14.332;2022-12-18T06:27:52;50.90;;;24.20;;
75716;SDS011;64333;50.138;14.332;2022-12-18T06:30:17;55.50;;;24.77;;
75716;SDS011;64333;50.138;14.332;2022-12-18T06:32:43;63.58;;;27.05;;
75716;SDS011;64333;50.138;14.332;2022-12-18T06:35:08;47.60;;;22.75;;
75716;SDS011;64333;50.138;14.332;2022-12-18T06:37:34;45.90;;;21.88;;
75716;SDS011;64333;50.138;14.332;2022-12-18T06:39:59;44.35;;;20.85;;
75716;SDS011;64333;50.138;14.332;2022-12-18T06:42:25;39.67;;;18.65;;
75716;SDS011;64333;50.138;14.332;2022-12-18T06:44:51;36.88;;;16.20;;
75716;SDS011;64333;50.138;14.332;2022-12-18T06:47:17;48.83;;;20.38;;
75716;SDS011;64333;50.138;14.332;2022-12-18T06:49:43;42.70;;;18.73;;
75716;SDS011;64333;50.138;14.332;2022-12-18T06:52:08;45.72;;;19.23;;
75716;SDS011;64333;50.138;14.332;2022-12-18T06:54:34;45.95;;;20.77;;
75716;SDS011;64333;50.138;14.332;2022-12-18T06:56:59;44.83;;;19.00;;
75716;SDS011;64333;50.138;14.332;2022-12-18T06:59:25;48.80;;;19.55;;
75716;SDS011;64333;50.138;14.332;2022-12-18T07:01:50;42.22;;;18.38;;
75716;SDS011;64333;50.138;14.332;2022-12-18T07:04:16;40.80;;;18.20;;
75716;SDS011;64333;50.138;14.332;2022-12-18T07:06:41;43.03;;;18.00;;
75716;SDS011;64333;50.138;14.332;2022-12-18T07:09:06;46.65;;;18.88;;
75716;SDS011;64333;50.138;14.332;2022-12-18T07:11:32;41.95;;;17.08;;
75716;SDS011;64333;50.138;14.332;2022-12-18T07:13:58;46.88;;;18.25;;
75716;SDS011;64333;50.138;14.332;2022-12-18T07:16:24;38.78;;;18.27;;
75716;SDS011;64333;50.138;14.332;2022-12-18T07:18:56;47.35;;;17.15;;
75716;SDS011;64333;50.138;14.332;2022-12-18T07:21:21;42.40;;;14.75;;
75716;SDS011;64333;50.138;14.332;2022-12-18T07:23:48;36.85;;;14.88;;
75716;SDS011;64333;50.138;14.332;2022-12-18T07:26:15;35.22;;;13.18;;
75716;SDS011;64333;50.138;14.332;2022-12-18T07:28:42;44.55;;;14.52;;
75716;SDS011;64333;50.138;14.332;2022-12-18T07:31:12;47.58;;;14.50;;
75716;SDS011;64333;50.138;14.332;2022-12-18T07:33:39;44.15;;;16.40;;
75716;SDS011;64333;50.138;14.332;2022-12-18T07:36:05;35.05;;;13.15;;
75716;SDS011;64333;50.138;14.332;2022-12-18T07:38:33;30.92;;;11.18;;
75716;SDS011;64333;50.138;14.332;2022-12-18T07:41:00;37.90;;;13.65;;
75716;SDS011;64333;50.138;14.332;2022-12-18T07:43:26;41.25;;;11.68;;
75716;SDS011;64333;50.138;14.332;2022-12-18T07:45:52;39.15;;;13.98;;
75716;SDS011;64333;50.138;14.332;2022-12-18T07:48:17;35.15;;;11.65;;
75716;SDS011;64333;50.138;14.332;2022-12-18T07:50:43;31.27;;;12.45;;
75716;SDS011;64333;50.138;14.332;2022-12-18T07:53:08;36.25;;;11.93;;
75716;SDS011;64333;50.138;14.332;2022-12-18T07:55:33;30.02;;;11.95;;
75716;SDS011;64333;50.138;14.332;2022-12-18T07:58:02;30.40;;;11.23;;
75716;SDS011;64333;50.138;14.332;2022-12-18T08:00:28;37.30;;;12.65;;
75716;SDS011;64333;50.138;14.332;2022-12-18T08:02:54;27.90;;;10.75;;
75716;SDS011;64333;50.138;14.332;2022-12-18T08:05:20;36.95;;;13.13;;
75716;SDS011;64333;50.138;14.332;2022-12-18T08:07:46;34.65;;;12.25;;
75716;SDS011;64333;50.138;14.332;2022-12-18T08:10:12;38.88;;;13.85;;
75716;SDS011;64333;50.138;14.332;2022-12-18T08:12:37;37.13;;;13.07;;
75716;SDS011;64333;50.138;14.332;2022-12-18T08:15:03;39.92;;;14.18;;
75716;SDS011;64333;50.138;14.332;2022-12-18T08:17:29;27.58;;;12.05;;
75716;SDS011;64333;50.138;14.332;2022-12-18T08:19:54;37.65;;;12.20;;
75716;SDS011;64333;50.138;14.332;2022-12-18T08:22:19;34.72;;;13.35;;
75716;SDS011;64333;50.138;14.332;2022-12-18T08:24:45;29.38;;;10.57;;
75716;SDS011;64333;50.138;14.332;2022-12-18T08:27:10;29.33;;;10.57;;
75716;SDS011;64333;50.138;14.332;2022-12-18T08:29:35;24.48;;;8.80;;
75716;SDS011;64333;50.138;14.332;2022-12-18T08:32:01;25.70;;;9.73;;
75716;SDS011;64333;50.138;14.332;2022-12-18T08:34:26;26.38;;;9.48;;
75716;SDS011;64333;50.138;14.332;2022-12-18T08:36:52;35.08;;;12.15;;
75716;SDS011;64333;50.138;14.332;2022-12-18T08:39:17;23.63;;;8.88;;
75716;SDS011;64333;50.138;14.332;2022-12-18T08:41:42;25.45;;;9.32;;
75716;SDS011;64333;50.138;14.332;2022-12-18T08:44:28;20.25;;;7.88;;
75716;SDS011;64333;50.138;14.332;2022-12-18T08:47:02;25.95;;;9.82;;
75716;SDS011;64333;50.138;14.332;2022-12-18T08:49:28;18.85;;;8.55;;
75716;SDS011;64333;50.138;14.332;2022-12-18T08:51:54;30.05;;;9.85;;
75716;SDS011;64333;50.138;14.332;2022-12-18T08:54:22;34.13;;;11.55;;
75716;SDS011;64333;50.138;14.332;2022-12-18T08:56:47;21.83;;;8.02;;
75716;SDS011;64333;50.138;14.332;2022-12-18T08:59:14;24.30;;;9.68;;
75716;SDS011;64333;50.138;14.332;2022-12-18T09:01:40;22.38;;;9.73;;
75716;SDS011;64333;50.138;14.332;2022-12-18T09:04:05;33.08;;;11.73;;
75716;SDS011;64333;50.138;14.332;2022-12-18T09:06:31;19.30;;;8.02;;
75716;SDS011;64333;50.138;14.332;2022-12-18T09:08:56;30.80;;;13.02;;
75716;SDS011;64333;50.138;14.332;2022-12-18T09:11:23;22.88;;;9.35;;
75716;SDS011;64333;50.138;14.332;2022-12-18T09:13:51;24.50;;;10.30;;
75716;SDS011;64333;50.138;14.332;2022-12-18T09:16:17;25.40;;;10.70;;
75716;SDS011;64333;50.138;14.332;2022-12-18T09:18:43;21.67;;;9.73;;
75716;SDS011;64333;50.138;14.332;2022-12-18T09:21:09;26.95;;;12.27;;
75716;SDS011;64333;50.138;14.332;2022-12-18T09:23:39;27.42;;;10.40;;
75716;SDS011;64333;50.138;14.332;2022-12-18T09:26:05;35.63;;;12.45;;
75716;SDS011;64333;50.138;14.332;2022-12-18T09:28:30;31.52;;;13.18;;
75716;SDS011;64333;50.138;14.332;2022-12-18T09:30:56;39.63;;;15.82;;
75716;SDS011;64333;50.138;14.332;2022-12-18T09:33:21;37.00;;;13.30;;
75716;SDS011;64333;50.138;14.332;2022-12-18T09:35:46;26.23;;;11.40;;
75716;SDS011;64333;50.138;14.332;2022-12-18T09:38:13;32.47;;;12.15;;
75716;SDS011;64333;50.138;14.332;2022-12-18T09:40:44;26.85;;;9.70;;
75716;SDS011;64333;50.138;14.332;2022-12-18T09:43:18;30.30;;;11.65;;
75716;SDS011;64333;50.138;14.332;2022-12-18T09:45:49;26.13;;;11.13;;
75716;SDS011;64333;50.138;14.332;2022-12-18T09:49:01;40.85;;;17.92;;
75716;SDS011;64333;50.138;14.332;2022-12-18T09:51:11;33.55;;;12.32;;
75716;SDS011;64333;50.138;14.332;2022-12-18T09:53:45;27.52;;;9.50;;
75716;SDS011;64333;50.138;14.332;2022-12-18T09:56:16;17.83;;;8.35;;
75716;SDS011;64333;50.138;14.332;2022-12-18T09:58:49;23.70;;;11.15;;
75716;SDS011;64333;50.138;14.332;2022-12-18T10:01:25;21.75;;;9.23;;
75716;SDS011;64333;50.138;14.332;2022-12-18T10:03:52;23.00;;;10.23;;
75716;SDS011;64333;50.138;14.332;2022-12-18T10:19:55;37.25;;;13.18;;
75716;SDS011;64333;50.138;14.332;2022-12-18T10:25:17;28.30;;;11.05;;
75716;SDS011;64333;50.138;14.332;2022-12-18T10:27:47;29.95;;;10.57;;
75716;SDS011;64333;50.138;14.332;2022-12-18T10:30:18;25.20;;;10.13;;
75716;SDS011;64333;50.138;14.332;2022-12-18T10:32:45;24.65;;;9.45;;
75716;SDS011;64333;50.138;14.332;2022-12-18T10:35:15;20.75;;;9.25;;
75716;SDS011;64333;50.138;14.332;2022-12-18T10:38:03;28.17;;;11.00;;
75716;SDS011;64333;50.138;14.332;2022-12-18T10:43:25;22.50;;;8.73;;
75716;SDS011;64333;50.138;14.332;2022-12-18T10:48:33;26.42;;;9.63;;
75716;SDS011;64333;50.138;14.332;2022-12-18T10:51:09;23.25;;;8.73;;
75716;SDS011;64333;50.138;14.332;2022-12-18T10:53:35;21.95;;;9.43;;
75716;SDS011;64333;50.138;14.332;2022-12-18T10:56:02;19.83;;;6.95;;
75716;SDS011;64333;50.138;14.332;2022-12-18T11:03:29;19.27;;;9.55;;
75716;SDS011;64333;50.138;14.332;2022-12-18T11:06:05;26.52;;;8.63;;
75716;SDS011;64333;50.138;14.332;2022-12-18T11:08:31;19.10;;;9.52;;
75716;SDS011;64333;50.138;14.332;2022-12-18T11:10:57;24.27;;;10.15;;
75716;SDS011;64333;50.138;14.332;2022-12-18T11:13:23;27.35;;;10.68;;
75716;SDS011;64333;50.138;14.332;2022-12-18T11:15:51;20.75;;;10.00;;
75716;SDS011;64333;50.138;14.332;2022-12-18T11:18:33;19.60;;;9.02;;
75716;SDS011;64333;50.138;14.332;2022-12-18T11:21:06;29.75;;;12.20;;
75716;SDS011;64333;50.138;14.332;2022-12-18T11:23:52;25.30;;;9.40;;
75716;SDS011;64333;50.138;14.332;2022-12-18T11:26:18;27.80;;;10.77;;
75716;SDS011;64333;50.138;14.332;2022-12-18T11:29:08;26.38;;;11.38;;
75716;SDS011;64333;50.138;14.332;2022-12-18T11:31:35;27.05;;;12.05;;
75716;SDS011;64333;50.138;14.332;2022-12-18T11:36:43;24.83;;;10.35;;
75716;SDS011;64333;50.138;14.332;2022-12-18T11:39:21;20.77;;;9.05;;
75716;SDS011;64333;50.138;14.332;2022-12-18T11:41:56;22.95;;;9.07;;
75716;SDS011;64333;50.138;14.332;2022-12-18T11:50:21;34.60;;;13.30;;
75716;SDS011;64333;50.138;14.332;2022-12-18T11:52:50;19.25;;;9.90;;
75716;SDS011;64333;50.138;14.332;2022-12-18T11:58:15;24.30;;;9.52;;
75716;SDS011;64333;50.138;14.332;2022-12-18T12:00:47;28.65;;;12.18;;
75716;SDS011;64333;50.138;14.332;2022-12-18T12:22:04;25.73;;;11.20;;
75716;SDS011;64333;50.138;14.332;2022-12-18T12:38:40;28.08;;;11.32;;
75716;SDS011;64333;50.138;14.332;2022-12-18T12:41:18;28.98;;;11.07;;
75716;SDS011;64333;50.138;14.332;2022-12-18T12:44:07;30.90;;;11.82;;
75716;SDS011;64333;50.138;14.332;2022-12-18T12:46:39;29.38;;;12.93;;
75716;SDS011;64333;50.138;14.332;2022-12-18T12:49:12;37.70;;;13.52;;
75716;SDS011;64333;50.138;14.332;2022-12-18T12:51:43;29.48;;;13.73;;
75716;SDS011;64333;50.138;14.332;2022-12-18T12:54:16;31.05;;;12.32;;
75716;SDS011;64333;50.138;14.332;2022-12-18T12:57:02;28.98;;;11.00;;
75716;SDS011;64333;50.138;14.332;2022-12-18T13:00:15;33.00;;;13.02;;
75716;SDS011;64333;50.138;14.332;2022-12-18T13:05:21;35.25;;;13.20;;
75716;SDS011;64333;50.138;14.332;2022-12-18T13:07:56;26.30;;;10.80;;
75716;SDS011;64333;50.138;14.332;2022-12-18T13:13:05;32.42;;;13.93;;
75716;SDS011;64333;50.138;14.332;2022-12-18T13:15:33;32.20;;;12.75;;
75716;SDS011;64333;50.138;14.332;2022-12-18T13:18:04;35.75;;;12.80;;
75716;SDS011;64333;50.138;14.332;2022-12-18T13:20:37;28.42;;;10.88;;
75716;SDS011;64333;50.138;14.332;2022-12-18T13:25:55;33.63;;;14.68;;
75716;SDS011;64333;50.138;14.332;2022-12-18T13:28:49;34.53;;;13.98;;
75716;SDS011;64333;50.138;14.332;2022-12-18T13:34:24;26.52;;;11.38;;
75716;SDS011;64333;50.138;14.332;2022-12-18T13:36:56;31.20;;;13.07;;
75716;SDS011;64333;50.138;14.332;2022-12-18T13:39:42;27.00;;;12.18;;
75716;SDS011;64333;50.138;14.332;2022-12-18T13:47:05;26.92;;;11.68;;
75716;SDS011;64333;50.138;14.332;2022-12-18T13:49:50;35.80;;;12.10;;
75716;SDS011;64333;50.138;14.332;2022-12-18T13:52:17;37.20;;;12.93;;
75716;SDS011;64333;50.138;14.332;2022-12-18T13:54:49;28.65;;;10.25;;
75716;SDS011;64333;50.138;14.332;2022-12-18T13:57:30;27.85;;;11.55;;
75716;SDS011;64333;50.138;14.332;2022-12-18T13:59:57;36.33;;;11.77;;
75716;SDS011;64333;50.138;14.332;2022-12-18T14:02:37;39.58;;;11.55;;
75716;SDS011;64333;50.138;14.332;2022-12-18T14:05:03;19.77;;;8.93;;
75716;SDS011;64333;50.138;14.332;2022-12-18T14:07:29;40.05;;;12.02;;
75716;SDS011;64333;50.138;14.332;2022-12-18T14:09:57;32.97;;;11.70;;
75716;SDS011;64333;50.138;14.332;2022-12-18T14:12:26;28.38;;;11.77;;
75716;SDS011;64333;50.138;14.332;2022-12-18T14:20:27;35.08;;;11.30;;
75716;SDS011;64333;50.138;14.332;2022-12-18T14:22:54;29.05;;;10.35;;
75716;SDS011;64333;50.138;14.332;2022-12-18T14:25:25;20.52;;;8.57;;
75716;SDS011;64333;50.138;14.332;2022-12-18T14:30:41;43.40;;;17.85;;
75716;SDS011;64333;50.138;14.332;2022-12-18T14:35:38;35.63;;;13.15;;
75716;SDS011;64333;50.138;14.332;2022-12-18T14:40:58;29.95;;;11.57;;
75716;SDS011;64333;50.138;14.332;2022-12-18T14:43:35;28.80;;;12.50;;
75716;SDS011;64333;50.138;14.332;2022-12-18T14:46:03;31.98;;;11.77;;
75716;SDS011;64333;50.138;14.332;2022-12-18T14:48:35;35.30;;;13.18;;
75716;SDS011;64333;50.138;14.332;2022-12-18T14:51:06;37.10;;;14.98;;
75716;SDS011;64333;50.138;14.332;2022-12-18T14:53:45;39.13;;;13.77;;
75716;SDS011;64333;50.138;14.332;2022-12-18T14:56:31;31.45;;;12.13;;
75716;SDS011;64333;50.138;14.332;2022-12-18T15:01:38;33.67;;;11.15;;
75716;SDS011;64333;50.138;14.332;2022-12-18T15:04:28;35.83;;;14.40;;
75716;SDS011;64333;50.138;14.332;2022-12-18T15:07:04;32.00;;;12.68;;
75716;SDS011;64333;50.138;14.332;2022-12-18T15:09:30;16.13;;;6.40;;
75716;SDS011;64333;50.138;14.332;2022-12-18T15:11:56;30.58;;;10.60;;
75716;SDS011;64333;50.138;14.332;2022-12-18T15:16:53;29.95;;;14.20;;
75716;SDS011;64333;50.138;14.332;2022-12-18T15:19:20;37.70;;;14.57;;
75716;SDS011;64333;50.138;14.332;2022-12-18T15:21:47;35.70;;;13.82;;
75716;SDS011;64333;50.138;14.332;2022-12-18T15:24:20;34.08;;;12.00;;
75716;SDS011;64333;50.138;14.332;2022-12-18T15:26:52;29.20;;;11.05;;
75716;SDS011;64333;50.138;14.332;2022-12-18T15:29:19;31.83;;;13.18;;
75716;SDS011;64333;50.138;14.332;2022-12-18T15:31:57;22.10;;;9.85;;
75716;SDS011;64333;50.138;14.332;2022-12-18T15:34:23;13.75;;;7.95;;
75716;SDS011;64333;50.138;14.332;2022-12-18T15:36:50;18.83;;;9.45;;
75716;SDS011;64333;50.138;14.332;2022-12-18T15:39:16;27.85;;;12.15;;
75716;SDS011;64333;50.138;14.332;2022-12-18T15:41:41;23.85;;;12.80;;
75716;SDS011;64333;50.138;14.332;2022-12-18T15:44:27;32.58;;;11.70;;
75716;SDS011;64333;50.138;14.332;2022-12-18T15:46:53;30.80;;;13.32;;
75716;SDS011;64333;50.138;14.332;2022-12-18T15:49:18;31.23;;;12.48;;
75716;SDS011;64333;50.138;14.332;2022-12-18T15:51:44;29.33;;;12.50;;
75716;SDS011;64333;50.138;14.332;2022-12-18T15:54:11;27.33;;;11.95;;
75716;SDS011;64333;50.138;14.332;2022-12-18T15:56:40;33.30;;;13.70;;
75716;SDS011;64333;50.138;14.332;2022-12-18T15:59:24;29.23;;;12.65;;
75716;SDS011;64333;50.138;14.332;2022-12-18T16:01:50;38.28;;;14.02;;
75716;SDS011;64333;50.138;14.332;2022-12-18T16:04:20;41.97;;;16.52;;
75716;SDS011;64333;50.138;14.332;2022-12-18T16:06:46;23.95;;;10.80;;
75716;SDS011;64333;50.138;14.332;2022-12-18T16:09:13;19.45;;;9.10;;
75716;SDS011;64333;50.138;14.332;2022-12-18T16:11:39;36.70;;;13.00;;
75716;SDS011;64333;50.138;14.332;2022-12-18T16:14:27;25.08;;;10.95;;
75716;SDS011;64333;50.138;14.332;2022-12-18T16:16:55;26.48;;;11.98;;
75716;SDS011;64333;50.138;14.332;2022-12-18T16:19:23;27.83;;;9.70;;
75716;SDS011;64333;50.138;14.332;2022-12-18T16:21:51;32.55;;;11.82;;
75716;SDS011;64333;50.138;14.332;2022-12-18T16:24:19;25.23;;;9.60;;
75716;SDS011;64333;50.138;14.332;2022-12-18T16:26:48;21.40;;;10.13;;
75716;SDS011;64333;50.138;14.332;2022-12-18T16:29:16;32.60;;;13.57;;